sensor_id;sensor_type;location;lat;lon;timestamp;P1;durP1;ratioP1;P2;durP2;ratioP2
2680;SDS011;1350;42.134;24.708;2022-08-19T00:00:49;14.43;;;10.23;;
2680;SDS011;1350;42.134;24.708;2022-08-19T00:03:16;13.67;;;10.50;;
2680;SDS011;1350;42.134;24.708;2022-08-19T00:05:43;14.70;;;10.40;;
2680;SDS011;1350;42.134;24.708;2022-08-19T00:08:10;21.93;;;9.70;;
2680;SDS011;1350;42.134;24.708;2022-08-19T00:10:38;11.20;;;9.40;;
2680;SDS011;1350;42.134;24.708;2022-08-19T00:13:05;13.60;;;9.70;;
2680;SDS011;1350;42.134;24.708;2022-08-19T00:15:32;12.47;;;9.27;;
2680;SDS011;1350;42.134;24.708;2022-08-19T00:17:59;10.90;;;9.03;;
2680;SDS011;1350;42.134;24.708;2022-08-19T00:20:26;11.53;;;9.30;;
2680;SDS011;1350;42.134;24.708;2022-08-19T00:22:53;14.30;;;8.43;;
2680;SDS011;1350;42.134;24.708;2022-08-19T00:25:19;14.00;;;9.87;;
2680;SDS011;1350;42.134;24.708;2022-08-19T00:27:48;14.93;;;10.07;;
2680;SDS011;1350;42.134;24.708;2022-08-19T00:30:16;12.27;;;9.77;;
2680;SDS011;1350;42.134;24.708;2022-08-19T00:32:43;12.67;;;9.60;;
2680;SDS011;1350;42.134;24.708;2022-08-19T00:35:09;15.90;;;10.20;;
2680;SDS011;1350;42.134;24.708;2022-08-19T00:37:37;12.13;;;10.83;;
2680;SDS011;1350;42.134;24.708;2022-08-19T00:40:09;14.87;;;10.47;;
2680;SDS011;1350;42.134;24.708;2022-08-19T00:42:37;12.93;;;10.40;;
2680;SDS011;1350;42.134;24.708;2022-08-19T00:45:09;14.17;;;10.60;;
2680;SDS011;1350;42.134;24.708;2022-08-19T00:47:39;14.60;;;11.30;;
2680;SDS011;1350;42.134;24.708;2022-08-19T00:50:07;19.23;;;10.47;;
2680;SDS011;1350;42.134;24.708;2022-08-19T00:52:36;15.30;;;11.37;;
2680;SDS011;1350;42.134;24.708;2022-08-19T00:55:07;13.47;;;12.07;;
2680;SDS011;1350;42.134;24.708;2022-08-19T00:57:37;12.93;;;11.00;;
2680;SDS011;1350;42.134;24.708;2022-08-19T01:00:09;13.80;;;11.20;;
2680;SDS011;1350;42.134;24.708;2022-08-19T01:02:39;12.67;;;10.77;;
2680;SDS011;1350;42.134;24.708;2022-08-19T01:05:08;20.97;;;11.87;;
2680;SDS011;1350;42.134;24.708;2022-08-19T01:07:38;15.07;;;12.07;;
2680;SDS011;1350;42.134;24.708;2022-08-19T01:10:07;17.20;;;12.07;;
2680;SDS011;1350;42.134;24.708;2022-08-19T01:12:35;17.93;;;12.13;;
2680;SDS011;1350;42.134;24.708;2022-08-19T01:15:03;12.93;;;11.50;;
2680;SDS011;1350;42.134;24.708;2022-08-19T01:17:32;14.70;;;11.60;;
2680;SDS011;1350;42.134;24.708;2022-08-19T01:19:59;19.57;;;11.23;;
2680;SDS011;1350;42.134;24.708;2022-08-19T01:22:28;16.33;;;12.40;;
2680;SDS011;1350;42.134;24.708;2022-08-19T01:24:58;12.63;;;11.07;;
2680;SDS011;1350;42.134;24.708;2022-08-19T01:27:25;12.20;;;10.67;;
2680;SDS011;1350;42.134;24.708;2022-08-19T01:29:51;13.80;;;11.27;;
2680;SDS011;1350;42.134;24.708;2022-08-19T01:32:18;14.43;;;11.23;;
2680;SDS011;1350;42.134;24.708;2022-08-19T01:34:46;14.43;;;11.23;;
2680;SDS011;1350;42.134;24.708;2022-08-19T01:37:14;14.23;;;10.30;;
2680;SDS011;1350;42.134;24.708;2022-08-19T01:39:43;14.90;;;11.73;;
2680;SDS011;1350;42.134;24.708;2022-08-19T01:42:10;14.47;;;11.60;;
2680;SDS011;1350;42.134;24.708;2022-08-19T01:44:37;12.10;;;10.87;;
2680;SDS011;1350;42.134;24.708;2022-08-19T01:47:05;18.07;;;11.17;;
2680;SDS011;1350;42.134;24.708;2022-08-19T01:49:33;13.57;;;11.20;;
2680;SDS011;1350;42.134;24.708;2022-08-19T01:52:00;12.50;;;10.97;;
2680;SDS011;1350;42.134;24.708;2022-08-19T01:54:27;17.20;;;12.27;;
2680;SDS011;1350;42.134;24.708;2022-08-19T01:56:57;14.07;;;12.60;;
2680;SDS011;1350;42.134;24.708;2022-08-19T01:59:28;12.53;;;10.93;;
2680;SDS011;1350;42.134;24.708;2022-08-19T02:01:55;18.73;;;12.77;;
2680;SDS011;1350;42.134;24.708;2022-08-19T02:04:22;12.57;;;11.13;;
2680;SDS011;1350;42.134;24.708;2022-08-19T02:06:50;12.90;;;11.60;;
2680;SDS011;1350;42.134;24.708;2022-08-19T02:09:17;16.70;;;12.13;;
2680;SDS011;1350;42.134;24.708;2022-08-19T02:11:44;13.30;;;11.10;;
2680;SDS011;1350;42.134;24.708;2022-08-19T02:14:12;11.97;;;10.17;;
2680;SDS011;1350;42.134;24.708;2022-08-19T02:16:39;16.13;;;11.27;;
2680;SDS011;1350;42.134;24.708;2022-08-19T02:19:06;14.77;;;10.30;;
2680;SDS011;1350;42.134;24.708;2022-08-19T02:21:33;13.90;;;10.03;;
2680;SDS011;1350;42.134;24.708;2022-08-19T02:24:00;13.87;;;11.87;;
2680;SDS011;1350;42.134;24.708;2022-08-19T02:26:27;16.10;;;10.00;;
2680;SDS011;1350;42.134;24.708;2022-08-19T02:28:54;17.23;;;11.30;;
2680;SDS011;1350;42.134;24.708;2022-08-19T02:31:24;12.40;;;10.60;;
2680;SDS011;1350;42.134;24.708;2022-08-19T02:33:53;17.07;;;10.77;;
2680;SDS011;1350;42.134;24.708;2022-08-19T02:36:20;13.13;;;10.87;;
2680;SDS011;1350;42.134;24.708;2022-08-19T02:38:47;14.93;;;10.83;;
2680;SDS011;1350;42.134;24.708;2022-08-19T02:41:15;12.93;;;11.40;;
2680;SDS011;1350;42.134;24.708;2022-08-19T02:43:43;12.37;;;11.00;;
2680;SDS011;1350;42.134;24.708;2022-08-19T02:46:14;13.50;;;10.80;;
2680;SDS011;1350;42.134;24.708;2022-08-19T02:48:47;14.00;;;10.90;;
2680;SDS011;1350;42.134;24.708;2022-08-19T02:51:18;14.00;;;11.50;;
2680;SDS011;1350;42.134;24.708;2022-08-19T02:53:46;13.50;;;12.10;;
2680;SDS011;1350;42.134;24.708;2022-08-19T02:56:13;13.00;;;11.60;;
2680;SDS011;1350;42.134;24.708;2022-08-19T02:58:40;15.97;;;12.60;;
2680;SDS011;1350;42.134;24.708;2022-08-19T03:01:08;16.83;;;12.27;;
2680;SDS011;1350;42.134;24.708;2022-08-19T03:03:35;13.43;;;12.00;;
2680;SDS011;1350;42.134;24.708;2022-08-19T03:06:05;19.20;;;12.90;;
2680;SDS011;1350;42.134;24.708;2022-08-19T03:08:34;19.03;;;13.10;;
2680;SDS011;1350;42.134;24.708;2022-08-19T03:11:02;23.00;;;14.93;;
2680;SDS011;1350;42.134;24.708;2022-08-19T03:13:29;22.07;;;13.47;;
2680;SDS011;1350;42.134;24.708;2022-08-19T03:15:56;19.20;;;12.60;;
2680;SDS011;1350;42.134;24.708;2022-08-19T03:18:23;20.70;;;14.10;;
2680;SDS011;1350;42.134;24.708;2022-08-19T03:20:50;21.80;;;13.73;;
2680;SDS011;1350;42.134;24.708;2022-08-19T03:23:20;18.40;;;13.17;;
2680;SDS011;1350;42.134;24.708;2022-08-19T03:25:49;21.83;;;13.77;;
2680;SDS011;1350;42.134;24.708;2022-08-19T03:28:17;17.20;;;13.17;;
2680;SDS011;1350;42.134;24.708;2022-08-19T03:30:54;16.77;;;13.07;;
2680;SDS011;1350;42.134;24.708;2022-08-19T03:33:23;16.43;;;14.03;;
2680;SDS011;1350;42.134;24.708;2022-08-19T03:36:04;18.03;;;13.23;;
2680;SDS011;1350;42.134;24.708;2022-08-19T03:38:35;18.47;;;13.90;;
2680;SDS011;1350;42.134;24.708;2022-08-19T03:41:03;17.30;;;13.97;;
2680;SDS011;1350;42.134;24.708;2022-08-19T03:43:31;25.07;;;15.23;;
2680;SDS011;1350;42.134;24.708;2022-08-19T03:46:00;17.10;;;12.90;;
2680;SDS011;1350;42.134;24.708;2022-08-19T03:48:29;33.17;;;20.87;;
2680;SDS011;1350;42.134;24.708;2022-08-19T03:50:57;29.63;;;17.87;;
2680;SDS011;1350;42.134;24.708;2022-08-19T03:53:25;22.83;;;14.10;;
2680;SDS011;1350;42.134;24.708;2022-08-19T03:55:54;23.87;;;15.13;;
2680;SDS011;1350;42.134;24.708;2022-08-19T03:58:23;23.97;;;18.57;;
2680;SDS011;1350;42.134;24.708;2022-08-19T04:00:49;31.67;;;16.50;;
2680;SDS011;1350;42.134;24.708;2022-08-19T04:03:16;27.70;;;16.97;;
2680;SDS011;1350;42.134;24.708;2022-08-19T04:05:44;29.20;;;16.10;;
2680;SDS011;1350;42.134;24.708;2022-08-19T04:08:12;39.73;;;15.93;;
2680;SDS011;1350;42.134;24.708;2022-08-19T04:10:46;33.77;;;18.47;;
2680;SDS011;1350;42.134;24.708;2022-08-19T04:13:15;34.67;;;18.07;;
2680;SDS011;1350;42.134;24.708;2022-08-19T04:15:44;31.90;;;18.00;;
2680;SDS011;1350;42.134;24.708;2022-08-19T04:18:12;34.53;;;14.93;;
2680;SDS011;1350;42.134;24.708;2022-08-19T04:20:40;25.27;;;14.67;;
2680;SDS011;1350;42.134;24.708;2022-08-19T04:23:09;20.63;;;14.83;;
2680;SDS011;1350;42.134;24.708;2022-08-19T04:25:36;18.87;;;13.07;;
2680;SDS011;1350;42.134;24.708;2022-08-19T04:28:04;33.47;;;15.23;;
2680;SDS011;1350;42.134;24.708;2022-08-19T04:30:38;33.73;;;15.03;;
2680;SDS011;1350;42.134;24.708;2022-08-19T04:33:06;28.10;;;14.63;;
2680;SDS011;1350;42.134;24.708;2022-08-19T04:35:37;38.53;;;15.70;;
2680;SDS011;1350;42.134;24.708;2022-08-19T04:38:05;20.60;;;13.33;;
2680;SDS011;1350;42.134;24.708;2022-08-19T04:40:32;21.33;;;13.17;;
2680;SDS011;1350;42.134;24.708;2022-08-19T04:43:17;19.73;;;13.57;;
2680;SDS011;1350;42.134;24.708;2022-08-19T04:45:45;15.97;;;12.80;;
2680;SDS011;1350;42.134;24.708;2022-08-19T04:48:12;31.63;;;15.30;;
2680;SDS011;1350;42.134;24.708;2022-08-19T04:50:40;24.80;;;13.20;;
2680;SDS011;1350;42.134;24.708;2022-08-19T04:53:08;33.07;;;14.03;;
2680;SDS011;1350;42.134;24.708;2022-08-19T04:55:38;31.53;;;13.57;;
2680;SDS011;1350;42.134;24.708;2022-08-19T04:58:13;38.53;;;12.67;;
2680;SDS011;1350;42.134;24.708;2022-08-19T05:00:41;24.67;;;14.03;;
2680;SDS011;1350;42.134;24.708;2022-08-19T05:03:13;21.57;;;13.30;;
2680;SDS011;1350;42.134;24.708;2022-08-19T05:05:42;37.17;;;13.80;;
2680;SDS011;1350;42.134;24.708;2022-08-19T05:08:11;24.70;;;12.50;;
2680;SDS011;1350;42.134;24.708;2022-08-19T05:10:38;23.83;;;13.27;;
2680;SDS011;1350;42.134;24.708;2022-08-19T05:13:06;27.20;;;11.70;;
2680;SDS011;1350;42.134;24.708;2022-08-19T05:15:34;23.70;;;11.07;;
2680;SDS011;1350;42.134;24.708;2022-08-19T05:18:02;25.57;;;12.13;;
2680;SDS011;1350;42.134;24.708;2022-08-19T05:20:46;36.10;;;12.70;;
2680;SDS011;1350;42.134;24.708;2022-08-19T05:23:30;14.60;;;10.73;;
2680;SDS011;1350;42.134;24.708;2022-08-19T05:25:57;19.03;;;11.37;;
2680;SDS011;1350;42.134;24.708;2022-08-19T05:28:24;21.60;;;16.13;;
2680;SDS011;1350;42.134;24.708;2022-08-19T05:30:52;14.53;;;10.63;;
2680;SDS011;1350;42.134;24.708;2022-08-19T05:33:22;28.10;;;12.00;;
2680;SDS011;1350;42.134;24.708;2022-08-19T05:35:49;14.40;;;10.90;;
2680;SDS011;1350;42.134;24.708;2022-08-19T05:38:17;17.70;;;10.50;;
2680;SDS011;1350;42.134;24.708;2022-08-19T05:40:44;16.50;;;9.70;;
2680;SDS011;1350;42.134;24.708;2022-08-19T05:43:12;18.00;;;9.80;;
2680;SDS011;1350;42.134;24.708;2022-08-19T05:45:40;17.10;;;9.90;;
2680;SDS011;1350;42.134;24.708;2022-08-19T05:48:08;15.50;;;7.80;;
2680;SDS011;1350;42.134;24.708;2022-08-19T05:50:37;20.87;;;9.87;;
2680;SDS011;1350;42.134;24.708;2022-08-19T05:53:05;25.23;;;10.97;;
2680;SDS011;1350;42.134;24.708;2022-08-19T05:55:32;25.03;;;8.83;;
2680;SDS011;1350;42.134;24.708;2022-08-19T05:57:59;20.03;;;9.97;;
2680;SDS011;1350;42.134;24.708;2022-08-19T06:00:26;15.43;;;8.97;;
2680;SDS011;1350;42.134;24.708;2022-08-19T06:02:55;25.73;;;10.77;;
2680;SDS011;1350;42.134;24.708;2022-08-19T06:05:24;18.03;;;10.33;;
2680;SDS011;1350;42.134;24.708;2022-08-19T06:07:52;13.30;;;9.57;;
2680;SDS011;1350;42.134;24.708;2022-08-19T06:10:19;14.57;;;9.53;;
2680;SDS011;1350;42.134;24.708;2022-08-19T06:12:46;17.00;;;9.60;;
2680;SDS011;1350;42.134;24.708;2022-08-19T06:15:13;16.37;;;9.20;;
2680;SDS011;1350;42.134;24.708;2022-08-19T06:17:41;32.47;;;11.80;;
2680;SDS011;1350;42.134;24.708;2022-08-19T06:20:10;10.83;;;8.83;;
2680;SDS011;1350;42.134;24.708;2022-08-19T06:22:39;13.97;;;8.53;;
2680;SDS011;1350;42.134;24.708;2022-08-19T06:25:08;22.20;;;10.20;;
2680;SDS011;1350;42.134;24.708;2022-08-19T06:27:36;14.33;;;10.10;;
2680;SDS011;1350;42.134;24.708;2022-08-19T06:30:04;16.03;;;10.30;;
2680;SDS011;1350;42.134;24.708;2022-08-19T06:32:31;15.23;;;8.20;;
2680;SDS011;1350;42.134;24.708;2022-08-19T06:34:58;13.70;;;8.77;;
2680;SDS011;1350;42.134;24.708;2022-08-19T06:37:25;10.00;;;8.20;;
2680;SDS011;1350;42.134;24.708;2022-08-19T06:39:52;11.43;;;8.60;;
2680;SDS011;1350;42.134;24.708;2022-08-19T06:42:20;9.13;;;7.23;;
2680;SDS011;1350;42.134;24.708;2022-08-19T06:44:47;17.23;;;8.07;;
2680;SDS011;1350;42.134;24.708;2022-08-19T06:47:16;17.70;;;10.17;;
2680;SDS011;1350;42.134;24.708;2022-08-19T06:49:44;15.60;;;9.70;;
2680;SDS011;1350;42.134;24.708;2022-08-19T06:52:11;13.13;;;7.90;;
2680;SDS011;1350;42.134;24.708;2022-08-19T06:54:39;13.97;;;8.70;;
2680;SDS011;1350;42.134;24.708;2022-08-19T06:57:07;13.50;;;9.10;;
2680;SDS011;1350;42.134;24.708;2022-08-19T06:59:41;21.23;;;10.20;;
2680;SDS011;1350;42.134;24.708;2022-08-19T07:02:08;15.00;;;9.40;;
2680;SDS011;1350;42.134;24.708;2022-08-19T07:04:35;13.27;;;9.53;;
2680;SDS011;1350;42.134;24.708;2022-08-19T07:07:04;13.47;;;9.13;;
2680;SDS011;1350;42.134;24.708;2022-08-19T07:09:33;18.83;;;9.00;;
2680;SDS011;1350;42.134;24.708;2022-08-19T07:12:03;15.73;;;9.10;;
2680;SDS011;1350;42.134;24.708;2022-08-19T07:14:31;10.83;;;8.57;;
2680;SDS011;1350;42.134;24.708;2022-08-19T07:17:04;15.20;;;9.10;;
2680;SDS011;1350;42.134;24.708;2022-08-19T07:19:32;18.13;;;9.90;;
2680;SDS011;1350;42.134;24.708;2022-08-19T07:22:03;47.67;;;12.50;;
2680;SDS011;1350;42.134;24.708;2022-08-19T07:24:32;14.43;;;8.50;;
2680;SDS011;1350;42.134;24.708;2022-08-19T07:27:00;17.53;;;7.67;;
2680;SDS011;1350;42.134;24.708;2022-08-19T07:29:30;12.33;;;8.90;;
2680;SDS011;1350;42.134;24.708;2022-08-19T07:32:00;13.23;;;8.40;;
2680;SDS011;1350;42.134;24.708;2022-08-19T07:34:30;23.47;;;8.70;;
2680;SDS011;1350;42.134;24.708;2022-08-19T07:37:02;11.00;;;7.33;;
2680;SDS011;1350;42.134;24.708;2022-08-19T07:39:31;16.37;;;8.00;;
2680;SDS011;1350;42.134;24.708;2022-08-19T07:42:00;11.20;;;7.43;;
2680;SDS011;1350;42.134;24.708;2022-08-19T07:44:31;77.13;;;15.57;;
2680;SDS011;1350;42.134;24.708;2022-08-19T07:46:59;24.63;;;9.70;;
2680;SDS011;1350;42.134;24.708;2022-08-19T07:49:26;10.87;;;7.40;;
2680;SDS011;1350;42.134;24.708;2022-08-19T07:51:56;11.17;;;8.07;;
2680;SDS011;1350;42.134;24.708;2022-08-19T07:54:26;16.80;;;8.03;;
2680;SDS011;1350;42.134;24.708;2022-08-19T07:56:55;10.80;;;7.17;;
2680;SDS011;1350;42.134;24.708;2022-08-19T07:59:23;21.37;;;9.40;;
2680;SDS011;1350;42.134;24.708;2022-08-19T08:01:50;11.23;;;7.37;;
2680;SDS011;1350;42.134;24.708;2022-08-19T08:04:18;16.70;;;8.70;;
2680;SDS011;1350;42.134;24.708;2022-08-19T08:07:06;19.70;;;9.10;;
2680;SDS011;1350;42.134;24.708;2022-08-19T08:09:53;10.83;;;7.70;;
2680;SDS011;1350;42.134;24.708;2022-08-19T08:12:21;13.33;;;7.93;;
2680;SDS011;1350;42.134;24.708;2022-08-19T08:14:51;18.43;;;8.87;;
2680;SDS011;1350;42.134;24.708;2022-08-19T08:17:20;13.63;;;8.33;;
2680;SDS011;1350;42.134;24.708;2022-08-19T08:19:49;16.30;;;8.33;;
2680;SDS011;1350;42.134;24.708;2022-08-19T08:22:18;12.90;;;8.70;;
2680;SDS011;1350;42.134;24.708;2022-08-19T08:25:03;13.97;;;8.80;;
2680;SDS011;1350;42.134;24.708;2022-08-19T08:27:31;11.77;;;8.67;;
2680;SDS011;1350;42.134;24.708;2022-08-19T08:30:02;12.60;;;8.07;;
2680;SDS011;1350;42.134;24.708;2022-08-19T08:32:30;12.40;;;7.37;;
2680;SDS011;1350;42.134;24.708;2022-08-19T08:34:57;21.97;;;8.00;;
2680;SDS011;1350;42.134;24.708;2022-08-19T08:37:25;12.10;;;8.23;;
2680;SDS011;1350;42.134;24.708;2022-08-19T08:39:52;9.90;;;8.00;;
2680;SDS011;1350;42.134;24.708;2022-08-19T08:42:20;9.47;;;7.40;;
2680;SDS011;1350;42.134;24.708;2022-08-19T08:44:56;27.90;;;9.40;;
2680;SDS011;1350;42.134;24.708;2022-08-19T08:47:27;12.03;;;8.13;;
2680;SDS011;1350;42.134;24.708;2022-08-19T08:49:59;16.80;;;7.50;;
2680;SDS011;1350;42.134;24.708;2022-08-19T08:52:31;9.17;;;6.50;;
2680;SDS011;1350;42.134;24.708;2022-08-19T08:55:03;14.53;;;7.83;;
2680;SDS011;1350;42.134;24.708;2022-08-19T08:57:35;9.53;;;8.33;;
2680;SDS011;1350;42.134;24.708;2022-08-19T09:00:12;19.53;;;8.33;;
2680;SDS011;1350;42.134;24.708;2022-08-19T09:02:42;9.90;;;7.17;;
2680;SDS011;1350;42.134;24.708;2022-08-19T09:05:10;8.80;;;6.70;;
2680;SDS011;1350;42.134;24.708;2022-08-19T09:07:43;29.43;;;9.50;;
2680;SDS011;1350;42.134;24.708;2022-08-19T09:10:17;13.33;;;7.20;;
2680;SDS011;1350;42.134;24.708;2022-08-19T09:12:54;9.70;;;7.50;;
2680;SDS011;1350;42.134;24.708;2022-08-19T09:15:31;9.50;;;6.47;;
2680;SDS011;1350;42.134;24.708;2022-08-19T09:18:03;8.23;;;6.23;;
2680;SDS011;1350;42.134;24.708;2022-08-19T09:20:31;10.13;;;6.57;;
2680;SDS011;1350;42.134;24.708;2022-08-19T09:22:59;21.67;;;8.03;;
2680;SDS011;1350;42.134;24.708;2022-08-19T09:25:26;15.93;;;7.67;;
2680;SDS011;1350;42.134;24.708;2022-08-19T09:27:53;14.73;;;8.17;;
2680;SDS011;1350;42.134;24.708;2022-08-19T09:30:22;10.77;;;7.03;;
2680;SDS011;1350;42.134;24.708;2022-08-19T09:32:52;9.40;;;6.97;;
2680;SDS011;1350;42.134;24.708;2022-08-19T09:35:20;11.83;;;6.93;;
2680;SDS011;1350;42.134;24.708;2022-08-19T09:37:48;8.30;;;5.67;;
2680;SDS011;1350;42.134;24.708;2022-08-19T09:40:17;9.00;;;6.07;;
2680;SDS011;1350;42.134;24.708;2022-08-19T09:42:45;7.93;;;6.00;;
2680;SDS011;1350;42.134;24.708;2022-08-19T09:45:12;10.00;;;7.30;;
2680;SDS011;1350;42.134;24.708;2022-08-19T09:47:40;9.17;;;6.87;;
2680;SDS011;1350;42.134;24.708;2022-08-19T09:50:07;12.83;;;6.60;;
2680;SDS011;1350;42.134;24.708;2022-08-19T09:52:36;13.67;;;7.83;;
2680;SDS011;1350;42.134;24.708;2022-08-19T09:55:03;14.23;;;7.13;;
2680;SDS011;1350;42.134;24.708;2022-08-19T09:57:31;8.57;;;7.47;;
2680;SDS011;1350;42.134;24.708;2022-08-19T09:59:58;12.13;;;6.03;;
2680;SDS011;1350;42.134;24.708;2022-08-19T10:02:25;9.40;;;6.43;;
2680;SDS011;1350;42.134;24.708;2022-08-19T10:04:52;10.63;;;6.80;;
2680;SDS011;1350;42.134;24.708;2022-08-19T10:07:36;12.23;;;8.13;;
2680;SDS011;1350;42.134;24.708;2022-08-19T10:10:03;15.03;;;7.53;;
2680;SDS011;1350;42.134;24.708;2022-08-19T10:12:33;11.77;;;8.37;;
2680;SDS011;1350;42.134;24.708;2022-08-19T10:15:00;14.40;;;7.87;;
2680;SDS011;1350;42.134;24.708;2022-08-19T10:17:28;8.20;;;6.00;;
2680;SDS011;1350;42.134;24.708;2022-08-19T10:19:55;13.53;;;8.20;;
2680;SDS011;1350;42.134;24.708;2022-08-19T10:22:22;8.23;;;6.17;;
2680;SDS011;1350;42.134;24.708;2022-08-19T10:24:48;8.40;;;6.30;;
2680;SDS011;1350;42.134;24.708;2022-08-19T10:27:16;8.80;;;6.53;;
2680;SDS011;1350;42.134;24.708;2022-08-19T10:29:44;9.57;;;6.70;;
2680;SDS011;1350;42.134;24.708;2022-08-19T10:32:13;10.47;;;6.83;;
2680;SDS011;1350;42.134;24.708;2022-08-19T10:34:39;8.17;;;6.70;;
2680;SDS011;1350;42.134;24.708;2022-08-19T10:37:06;7.53;;;5.90;;
2680;SDS011;1350;42.134;24.708;2022-08-19T10:39:34;8.27;;;6.07;;
2680;SDS011;1350;42.134;24.708;2022-08-19T10:42:04;14.27;;;6.37;;
2680;SDS011;1350;42.134;24.708;2022-08-19T10:44:31;9.10;;;6.53;;
2680;SDS011;1350;42.134;24.708;2022-08-19T10:47:02;11.93;;;6.23;;
2680;SDS011;1350;42.134;24.708;2022-08-19T10:49:29;10.87;;;7.47;;
2680;SDS011;1350;42.134;24.708;2022-08-19T10:52:17;11.60;;;6.10;;
2680;SDS011;1350;42.134;24.708;2022-08-19T10:54:58;78.03;;;14.40;;
2680;SDS011;1350;42.134;24.708;2022-08-19T10:57:42;8.90;;;6.33;;
2680;SDS011;1350;42.134;24.708;2022-08-19T11:00:10;7.93;;;6.90;;
2680;SDS011;1350;42.134;24.708;2022-08-19T11:02:39;20.03;;;6.40;;
2680;SDS011;1350;42.134;24.708;2022-08-19T11:05:07;34.90;;;8.90;;
2680;SDS011;1350;42.134;24.708;2022-08-19T11:07:36;9.03;;;5.90;;
2680;SDS011;1350;42.134;24.708;2022-08-19T11:10:04;8.73;;;6.30;;
2680;SDS011;1350;42.134;24.708;2022-08-19T11:12:31;8.07;;;6.30;;
2680;SDS011;1350;42.134;24.708;2022-08-19T11:14:58;10.33;;;6.03;;
2680;SDS011;1350;42.134;24.708;2022-08-19T11:17:26;9.63;;;7.17;;
2680;SDS011;1350;42.134;24.708;2022-08-19T11:19:58;8.67;;;5.77;;
2680;SDS011;1350;42.134;24.708;2022-08-19T11:22:27;8.17;;;6.20;;
2680;SDS011;1350;42.134;24.708;2022-08-19T11:24:54;11.57;;;7.20;;
2680;SDS011;1350;42.134;24.708;2022-08-19T11:27:21;13.30;;;5.90;;
2680;SDS011;1350;42.134;24.708;2022-08-19T11:29:48;9.47;;;5.43;;
2680;SDS011;1350;42.134;24.708;2022-08-19T11:32:14;13.80;;;6.47;;
2680;SDS011;1350;42.134;24.708;2022-08-19T11:34:41;7.80;;;5.50;;
2680;SDS011;1350;42.134;24.708;2022-08-19T11:37:09;7.13;;;5.93;;
2680;SDS011;1350;42.134;24.708;2022-08-19T11:39:36;10.17;;;7.10;;
2680;SDS011;1350;42.134;24.708;2022-08-19T11:42:04;8.10;;;5.90;;
2680;SDS011;1350;42.134;24.708;2022-08-19T11:44:53;7.97;;;5.53;;
2680;SDS011;1350;42.134;24.708;2022-08-19T11:47:20;9.70;;;6.50;;
2680;SDS011;1350;42.134;24.708;2022-08-19T11:49:47;7.00;;;5.33;;
2680;SDS011;1350;42.134;24.708;2022-08-19T11:52:15;9.30;;;5.70;;
2680;SDS011;1350;42.134;24.708;2022-08-19T11:54:42;7.87;;;5.70;;
2680;SDS011;1350;42.134;24.708;2022-08-19T11:57:08;12.13;;;6.57;;
2680;SDS011;1350;42.134;24.708;2022-08-19T11:59:35;7.40;;;5.10;;
2680;SDS011;1350;42.134;24.708;2022-08-19T12:02:02;10.70;;;5.90;;
2680;SDS011;1350;42.134;24.708;2022-08-19T12:04:29;8.70;;;5.87;;
2680;SDS011;1350;42.134;24.708;2022-08-19T12:06:55;8.07;;;6.30;;
2680;SDS011;1350;42.134;24.708;2022-08-19T12:09:24;10.40;;;5.70;;
2680;SDS011;1350;42.134;24.708;2022-08-19T12:11:50;11.20;;;6.40;;
2680;SDS011;1350;42.134;24.708;2022-08-19T12:14:17;9.63;;;5.83;;
2680;SDS011;1350;42.134;24.708;2022-08-19T12:16:44;8.40;;;5.33;;
2680;SDS011;1350;42.134;24.708;2022-08-19T12:19:13;7.80;;;5.83;;
2680;SDS011;1350;42.134;24.708;2022-08-19T12:21:40;8.50;;;6.30;;
2680;SDS011;1350;42.134;24.708;2022-08-19T12:24:07;7.70;;;5.90;;
2680;SDS011;1350;42.134;24.708;2022-08-19T12:26:35;7.07;;;5.73;;
2680;SDS011;1350;42.134;24.708;2022-08-19T12:29:02;7.37;;;5.60;;
2680;SDS011;1350;42.134;24.708;2022-08-19T12:31:30;8.20;;;7.10;;
2680;SDS011;1350;42.134;24.708;2022-08-19T12:33:57;10.20;;;6.10;;
2680;SDS011;1350;42.134;24.708;2022-08-19T12:36:24;12.20;;;6.03;;
2680;SDS011;1350;42.134;24.708;2022-08-19T12:38:51;9.20;;;6.00;;
2680;SDS011;1350;42.134;24.708;2022-08-19T12:41:18;10.10;;;5.73;;
2680;SDS011;1350;42.134;24.708;2022-08-19T12:43:48;10.70;;;8.47;;
2680;SDS011;1350;42.134;24.708;2022-08-19T12:46:16;12.80;;;8.10;;
2680;SDS011;1350;42.134;24.708;2022-08-19T12:48:43;11.10;;;6.40;;
2680;SDS011;1350;42.134;24.708;2022-08-19T12:51:11;8.03;;;6.40;;
2680;SDS011;1350;42.134;24.708;2022-08-19T12:53:40;8.20;;;5.70;;
2680;SDS011;1350;42.134;24.708;2022-08-19T12:56:07;11.40;;;6.50;;
2680;SDS011;1350;42.134;24.708;2022-08-19T12:58:36;8.83;;;6.27;;
2680;SDS011;1350;42.134;24.708;2022-08-19T13:01:08;11.07;;;6.10;;
2680;SDS011;1350;42.134;24.708;2022-08-19T13:03:36;8.10;;;5.70;;
2680;SDS011;1350;42.134;24.708;2022-08-19T13:06:03;9.13;;;6.43;;
2680;SDS011;1350;42.134;24.708;2022-08-19T13:08:30;8.30;;;6.80;;
2680;SDS011;1350;42.134;24.708;2022-08-19T13:10:57;11.00;;;5.83;;
2680;SDS011;1350;42.134;24.708;2022-08-19T13:13:24;10.40;;;5.80;;
2680;SDS011;1350;42.134;24.708;2022-08-19T13:15:52;8.20;;;6.17;;
2680;SDS011;1350;42.134;24.708;2022-08-19T13:18:20;7.10;;;5.97;;
2680;SDS011;1350;42.134;24.708;2022-08-19T13:20:46;10.13;;;6.20;;
2680;SDS011;1350;42.134;24.708;2022-08-19T13:23:13;11.53;;;5.93;;
2680;SDS011;1350;42.134;24.708;2022-08-19T13:25:40;11.60;;;6.07;;
2680;SDS011;1350;42.134;24.708;2022-08-19T13:28:07;10.70;;;7.13;;
2680;SDS011;1350;42.134;24.708;2022-08-19T13:30:33;8.60;;;6.33;;
2680;SDS011;1350;42.134;24.708;2022-08-19T13:33:19;8.70;;;6.50;;
2680;SDS011;1350;42.134;24.708;2022-08-19T13:35:47;8.33;;;5.77;;
2680;SDS011;1350;42.134;24.708;2022-08-19T13:38:16;11.77;;;6.17;;
2680;SDS011;1350;42.134;24.708;2022-08-19T13:40:46;10.50;;;5.90;;
2680;SDS011;1350;42.134;24.708;2022-08-19T13:43:14;9.83;;;6.73;;
2680;SDS011;1350;42.134;24.708;2022-08-19T13:45:42;7.90;;;6.37;;
2680;SDS011;1350;42.134;24.708;2022-08-19T13:48:09;10.43;;;6.27;;
2680;SDS011;1350;42.134;24.708;2022-08-19T13:50:39;7.70;;;5.97;;
2680;SDS011;1350;42.134;24.708;2022-08-19T13:53:08;8.20;;;7.10;;
2680;SDS011;1350;42.134;24.708;2022-08-19T13:55:36;10.10;;;6.67;;
2680;SDS011;1350;42.134;24.708;2022-08-19T13:58:04;10.70;;;6.50;;
2680;SDS011;1350;42.134;24.708;2022-08-19T14:00:32;9.87;;;5.60;;
2680;SDS011;1350;42.134;24.708;2022-08-19T14:03:00;9.70;;;6.10;;
2680;SDS011;1350;42.134;24.708;2022-08-19T14:05:28;12.33;;;6.13;;
2680;SDS011;1350;42.134;24.708;2022-08-19T14:07:56;7.60;;;6.23;;
2680;SDS011;1350;42.134;24.708;2022-08-19T14:10:24;7.60;;;5.50;;
2680;SDS011;1350;42.134;24.708;2022-08-19T14:12:52;12.30;;;6.93;;
2680;SDS011;1350;42.134;24.708;2022-08-19T14:15:20;9.33;;;5.90;;
2680;SDS011;1350;42.134;24.708;2022-08-19T14:17:49;7.77;;;5.63;;
2680;SDS011;1350;42.134;24.708;2022-08-19T14:20:17;10.57;;;6.80;;
2680;SDS011;1350;42.134;24.708;2022-08-19T14:22:45;10.43;;;7.07;;
2680;SDS011;1350;42.134;24.708;2022-08-19T14:25:15;9.07;;;6.67;;
2680;SDS011;1350;42.134;24.708;2022-08-19T14:27:43;9.50;;;6.37;;
2680;SDS011;1350;42.134;24.708;2022-08-19T14:30:11;9.80;;;6.47;;
2680;SDS011;1350;42.134;24.708;2022-08-19T14:32:40;10.50;;;5.93;;
2680;SDS011;1350;42.134;24.708;2022-08-19T14:35:08;7.47;;;5.83;;
2680;SDS011;1350;42.134;24.708;2022-08-19T14:37:37;8.27;;;6.63;;
2680;SDS011;1350;42.134;24.708;2022-08-19T14:40:05;13.50;;;7.40;;
2680;SDS011;1350;42.134;24.708;2022-08-19T14:42:34;10.57;;;6.30;;
2680;SDS011;1350;42.134;24.708;2022-08-19T14:45:01;9.97;;;6.90;;
2680;SDS011;1350;42.134;24.708;2022-08-19T14:47:30;9.20;;;6.20;;
2680;SDS011;1350;42.134;24.708;2022-08-19T14:50:00;11.27;;;7.17;;
2680;SDS011;1350;42.134;24.708;2022-08-19T14:52:27;10.77;;;6.57;;
2680;SDS011;1350;42.134;24.708;2022-08-19T14:54:54;8.73;;;6.90;;